Time;durP1;ratioP1;P1;durP2;ratioP2;P2;SDS_P1;SDS_P2;PMS_P1;PMS_P2;Temp;Humidity;BMP_temperature;BMP_pressure;BME280_temperature;BME280_humidity;BME280_pressure;Samples;Min_cycle;Max_cycle;Signal;HPM_P1;HPM_P2
2021/04/28 00:00:43;;;;;;;4.72;2.65;;;;;;;;;;5001879;28;20312;-60
2021/04/28 00:03:10;;;;;;;5.70;2.35;;;;;;;;;;5005578;28;20041;-59
2021/04/28 00:05:37;;;;;;;2.40;1.88;;;;;;;;;;5002651;28;20126;-59
2021/04/28 00:08:03;;;;;;;2.67;1.88;;;;;;;;;;4999236;28;20064;-59
2021/04/28 00:10:33;;;;;;;2.92;1.88;;;;;;;;;;5002106;28;20041;-60
2021/04/28 00:13:01;;;;;;;2.17;1.67;;;;;;;;;;5000447;28;20037;-59
2021/04/28 00:15:28;;;;;;;3.88;1.90;;;;;;;;;;5001782;28;20132;-59
2021/04/28 00:17:55;;;;;;;3.38;2.38;;;;;;;;;;5002803;28;20500;-58
2021/04/28 00:20:21;;;;;;;2.65;1.63;;;;;;;;;;5001694;28;20049;-60
2021/04/28 00:22:47;;;;;;;10.52;2.00;;;;;;;;;;5001215;28;20112;-59
2021/04/28 00:25:14;;;;;;;1.98;1.75;;;;;;;;;;5000776;28;20037;-60
2021/04/28 00:27:40;;;;;;;2.67;1.73;;;;;;;;;;4999222;28;20063;-59
2021/04/28 00:30:07;;;;;;;4.15;1.48;;;;;;;;;;5001867;28;20034;-59
2021/04/28 00:32:35;;;;;;;1.40;1.30;;;;;;;;;;4989360;28;20033;-59
2021/04/28 00:35:03;;;;;;;3.33;1.60;;;;;;;;;;5002298;28;20132;-59
2021/04/28 00:37:28;;;;;;;3.88;1.65;;;;;;;;;;5001499;28;20436;-59
2021/04/28 00:39:54;;;;;;;2.25;1.13;;;;;;;;;;5000086;28;20061;-59
2021/04/28 00:42:22;;;;;;;1.70;1.38;;;;;;;;;;5006920;28;20144;-59
2021/04/28 00:44:47;;;;;;;4.38;1.92;;;;;;;;;;5000185;28;20039;-59
2021/04/28 00:47:13;;;;;;;3.30;1.73;;;;;;;;;;4998793;28;20050;-60
2021/04/28 00:49:41;;;;;;;1.45;1.35;;;;;;;;;;4999798;28;20036;-59
2021/04/28 00:52:07;;;;;;;1.25;1.08;;;;;;;;;;5000528;28;20115;-59
2021/04/28 00:54:33;;;;;;;2.20;1.35;;;;;;;;;;4998958;28;22474;-59
2021/04/28 00:57:04;;;;;;;4.10;1.50;;;;;;;;;;5001323;28;20061;-58
2021/04/28 00:59:30;;;;;;;2.50;1.40;;;;;;;;;;5000081;28;20044;-59
2021/04/28 01:01:56;;;;;;;2.05;1.40;;;;;;;;;;5006407;28;20504;-59
2021/04/28 01:04:24;;;;;;;1.58;1.40;;;;;;;;;;5001300;28;20041;-59
2021/04/28 01:06:50;;;;;;;1.83;1.52;;;;;;;;;;4983650;28;20472;-59
2021/04/28 01:09:17;;;;;;;1.45;1.10;;;;;;;;;;5002082;28;20137;-59
2021/04/28 01:11:42;;;;;;;4.90;1.75;;;;;;;;;;5001326;28;20669;-58
2021/04/28 01:14:08;;;;;;;8.90;1.30;;;;;;;;;;4982775;28;20045;-59
2021/04/28 01:16:34;;;;;;;2.90;1.33;;;;;;;;;;4997500;28;20053;-59
2021/04/28 01:19:03;;;;;;;3.88;1.63;;;;;;;;;;4984308;28;20052;-60
2021/04/28 01:21:31;;;;;;;6.95;1.83;;;;;;;;;;5000434;28;20938;-60
2021/04/28 01:23:59;;;;;;;2.20;1.40;;;;;;;;;;5006959;28;20034;-58
2021/04/28 01:26:26;;;;;;;1.92;1.45;;;;;;;;;;4984524;28;20119;-60
2021/04/28 01:28:53;;;;;;;2.25;1.67;;;;;;;;;;5000243;28;20025;-60
2021/04/28 01:31:24;;;;;;;5.03;2.00;;;;;;;;;;4999752;28;20472;-59
2021/04/28 01:33:53;;;;;;;4.47;1.42;;;;;;;;;;4996963;28;20497;-60
2021/04/28 01:36:25;;;;;;;2.30;1.40;;;;;;;;;;4999855;28;20503;-59
2021/04/28 01:38:55;;;;;;;2.47;1.40;;;;;;;;;;4985813;28;20034;-58
2021/04/28 01:41:23;;;;;;;4.50;1.40;;;;;;;;;;4997427;28;20048;-59
2021/04/28 01:43:51;;;;;;;6.03;1.83;;;;;;;;;;5001645;28;21501;-58
2021/04/28 01:46:19;;;;;;;3.08;1.83;;;;;;;;;;4989388;28;20026;-59
2021/04/28 01:48:48;;;;;;;4.22;1.42;;;;;;;;;;4995260;28;20121;-60
2021/04/28 01:51:14;;;;;;;3.95;1.85;;;;;;;;;;5001420;28;20092;-59
2021/04/28 01:53:41;;;;;;;3.97;1.85;;;;;;;;;;4999511;28;20091;-58
2021/04/28 01:56:07;;;;;;;1.95;1.73;;;;;;;;;;5001392;28;20099;-59
2021/04/28 01:58:37;;;;;;;2.10;1.73;;;;;;;;;;4999471;28;20041;-60
2021/04/28 02:01:04;;;;;;;3.10;1.80;;;;;;;;;;4987809;28;20115;-58
2021/04/28 02:03:32;;;;;;;2.90;1.77;;;;;;;;;;5000288;28;20025;-59
2021/04/28 02:06:00;;;;;;;1.65;1.38;;;;;;;;;;4998726;28;20036;-59
2021/04/28 02:08:26;;;;;;;6.40;1.85;;;;;;;;;;5000146;28;20037;-59
2021/04/28 02:10:54;;;;;;;2.95;1.77;;;;;;;;;;4997818;28;20041;-60
2021/04/28 02:13:21;;;;;;;2.45;1.77;;;;;;;;;;4999112;28;20518;-59
2021/04/28 02:15:48;;;;;;;1.83;1.23;;;;;;;;;;4998173;28;20212;-59
2021/04/28 02:18:17;;;;;;;2.78;1.50;;;;;;;;;;4987264;28;20092;-60
2021/04/28 02:20:43;;;;;;;5.22;1.88;;;;;;;;;;4998947;28;20099;-59
2021/04/28 02:23:09;;;;;;;2.90;1.85;;;;;;;;;;4997998;28;20049;-59
2021/04/28 02:25:35;;;;;;;2.63;1.80;;;;;;;;;;4987568;28;20140;-59
2021/04/28 02:28:03;;;;;;;3.75;1.98;;;;;;;;;;5005681;28;20034;-60
2021/04/28 02:30:32;;;;;;;4.60;2.00;;;;;;;;;;4999497;28;20787;-59
2021/04/28 02:33:01;;;;;;;4.15;2.13;;;;;;;;;;5002900;28;20476;-59
2021/04/28 02:35:27;;;;;;;3.20;1.95;;;;;;;;;;5003670;28;20045;-59
2021/04/28 02:37:57;;;;;;;2.92;2.08;;;;;;;;;;5001619;28;20033;-60
2021/04/28 02:40:23;;;;;;;4.05;1.80;;;;;;;;;;5004350;28;20033;-59
2021/04/28 02:42:52;;;;;;;3.42;2.17;;;;;;;;;;5002023;28;20790;-59
2021/04/28 02:45:20;;;;;;;3.25;2.20;;;;;;;;;;5005356;28;20041;-59
2021/04/28 02:47:49;;;;;;;3.80;2.08;;;;;;;;;;5004561;28;20544;-59
2021/04/28 02:50:18;;;;;;;5.05;2.22;;;;;;;;;;5004401;28;20120;-60
2021/04/28 02:52:45;;;;;;;3.67;2.05;;;;;;;;;;5003058;28;20040;-59
2021/04/28 02:55:12;;;;;;;5.60;3.10;;;;;;;;;;5002249;28;20033;-59
2021/04/28 02:57:39;;;;;;;4.57;2.08;;;;;;;;;;5002758;28;20041;-59
2021/04/28 03:00:09;;;;;;;2.92;1.80;;;;;;;;;;4974944;28;20033;-59
2021/04/28 03:02:38;;;;;;;4.35;2.00;;;;;;;;;;5001944;28;20030;-59
2021/04/28 03:05:06;;;;;;;4.10;2.55;;;;;;;;;;5002277;28;20094;-60
2021/04/28 03:07:32;;;;;;;4.22;2.03;;;;;;;;;;5001352;28;20915;-58
2021/04/28 03:09:59;;;;;;;4.35;2.17;;;;;;;;;;5004439;28;20061;-58
2021/04/28 03:12:28;;;;;;;4.80;2.10;;;;;;;;;;5006361;28;20481;-59
2021/04/28 03:14:56;;;;;;;5.25;2.40;;;;;;;;;;5002083;28;20140;-58
2021/04/28 03:17:24;;;;;;;2.90;2.08;;;;;;;;;;5001080;28;21061;-59
2021/04/28 03:19:50;;;;;;;4.95;2.30;;;;;;;;;;4985755;28;20064;-58
2021/04/28 03:22:18;;;;;;;8.57;2.25;;;;;;;;;;5004145;28;20033;-58
2021/04/28 03:24:47;;;;;;;4.22;2.17;;;;;;;;;;5001883;28;20049;-58
2021/04/28 03:27:13;;;;;;;5.40;1.92;;;;;;;;;;5000943;28;20629;-59
2021/04/28 03:29:39;;;;;;;3.25;1.95;;;;;;;;;;5001845;28;20030;-59
2021/04/28 03:32:05;;;;;;;4.35;1.80;;;;;;;;;;5001461;28;20072;-59
2021/04/28 03:34:31;;;;;;;3.78;2.25;;;;;;;;;;5005255;28;20071;-59
2021/04/28 03:36:56;;;;;;;4.38;2.60;;;;;;;;;;5005474;28;20080;-59
2021/04/28 03:39:27;;;;;;;3.28;2.50;;;;;;;;;;5002124;28;20041;-62
2021/04/28 03:41:55;;;;;;;4.38;2.20;;;;;;;;;;5002781;28;22009;-59
2021/04/28 03:44:21;;;;;;;2.80;2.55;;;;;;;;;;5002785;28;20041;-59
2021/04/28 03:46:47;;;;;;;7.47;2.35;;;;;;;;;;5000315;28;20066;-60
2021/04/28 03:49:16;;;;;;;2.83;2.28;;;;;;;;;;4986845;28;20084;-59
2021/04/28 03:51:42;;;;;;;3.15;2.28;;;;;;;;;;4984910;28;20038;-60
2021/04/28 03:54:12;;;;;;;3.25;1.90;;;;;;;;;;5017644;28;20029;-60
2021/04/28 03:56:38;;;;;;;3.75;2.28;;;;;;;;;;5001118;28;20030;-58
2021/04/28 03:59:07;;;;;;;2.70;1.80;;;;;;;;;;5003537;28;20025;-59
2021/04/28 04:01:33;;;;;;;3.03;2.00;;;;;;;;;;5008768;28;20113;-59
2021/04/28 04:03:58;;;;;;;3.22;2.05;;;;;;;;;;5003176;28;20041;-60
2021/04/28 04:06:24;;;;;;;5.07;2.72;;;;;;;;;;5006865;28;20060;-59
2021/04/28 04:08:52;;;;;;;3.65;2.42;;;;;;;;;;5002656;28;20082;-60
2021/04/28 04:11:20;;;;;;;3.33;2.20;;;;;;;;;;4999227;28;20045;-59
2021/04/28 04:13:45;;;;;;;2.78;2.03;;;;;;;;;;5009442;28;20037;-59
2021/04/28 04:16:14;;;;;;;4.30;2.35;;;;;;;;;;4998485;28;20564;-58
2021/04/28 04:18:39;;;;;;;4.95;3.03;;;;;;;;;;5000831;28;20037;-58
2021/04/28 04:21:07;;;;;;;2.65;2.13;;;;;;;;;;5002787;28;20664;-59
2021/04/28 04:23:33;;;;;;;6.18;2.70;;;;;;;;;;4985733;28;20052;-60
2021/04/28 04:25:58;;;;;;;4.45;2.95;;;;;;;;;;5002539;28;20037;-59
2021/04/28 04:28:23;;;;;;;3.95;2.55;;;;;;;;;;5002430;28;20119;-60
2021/04/28 04:30:52;;;;;;;4.20;2.15;;;;;;;;;;5001301;28;20033;-60
2021/04/28 04:33:18;;;;;;;4.53;2.78;;;;;;;;;;4999458;28;21951;-59
2021/04/28 04:35:46;;;;;;;5.85;2.42;;;;;;;;;;5001920;28;20025;-58
2021/04/28 04:38:12;;;;;;;5.45;2.58;;;;;;;;;;5000098;28;20029;-59
2021/04/28 04:40:38;;;;;;;5.28;2.45;;;;;;;;;;5019232;28;20087;-59
2021/04/28 04:43:04;;;;;;;4.78;2.10;;;;;;;;;;5001689;28;20040;-59
2021/04/28 04:45:33;;;;;;;5.85;2.60;;;;;;;;;;4999451;28;22065;-60
2021/04/28 04:48:02;;;;;;;8.25;2.38;;;;;;;;;;5005244;28;20056;-59
2021/04/28 04:50:28;;;;;;;4.00;2.55;;;;;;;;;;5001720;28;20038;-59
2021/04/28 04:52:54;;;;;;;5.40;2.10;;;;;;;;;;4998884;28;20114;-60
2021/04/28 04:55:21;;;;;;;6.72;2.58;;;;;;;;;;4999844;28;20570;-59
2021/04/28 04:57:47;;;;;;;7.22;2.28;;;;;;;;;;4997900;28;20068;-58
2021/04/28 05:00:15;;;;;;;6.47;2.30;;;;;;;;;;4984552;28;20393;-59
2021/04/28 05:02:41;;;;;;;5.95;2.28;;;;;;;;;;4997384;28;20046;-59
2021/04/28 05:05:07;;;;;;;3.28;2.03;;;;;;;;;;4982620;28;20065;-59
2021/04/28 05:07:33;;;;;;;7.57;1.67;;;;;;;;;;5000486;28;20026;-58
2021/04/28 05:09:58;;;;;;;3.78;2.40;;;;;;;;;;5001355;28;20037;-59
2021/04/28 05:12:24;;;;;;;3.92;1.70;;;;;;;;;;5000460;28;20934;-59
2021/04/28 05:14:50;;;;;;;3.38;2.10;;;;;;;;;;5002848;28;20042;-58
2021/04/28 05:17:15;;;;;;;4.22;1.80;;;;;;;;;;5004272;28;20126;-58
2021/04/28 05:19:41;;;;;;;2.97;1.80;;;;;;;;;;5000246;28;20044;-58
2021/04/28 05:22:07;;;;;;;4.72;2.00;;;;;;;;;;5000933;28;20056;-58
2021/04/28 05:24:33;;;;;;;2.75;1.77;;;;;;;;;;5000813;28;20026;-59
2021/04/28 05:26:59;;;;;;;2.58;1.80;;;;;;;;;;4999803;28;20033;-59
2021/04/28 05:29:27;;;;;;;3.75;1.85;;;;;;;;;;4997798;28;20583;-58
2021/04/28 05:31:53;;;;;;;3.75;1.88;;;;;;;;;;4999742;28;20119;-59
2021/04/28 05:34:18;;;;;;;5.07;2.05;;;;;;;;;;5000201;28;20026;-59
2021/04/28 05:36:44;;;;;;;3.15;1.60;;;;;;;;;;5014732;28;21992;-59
2021/04/28 05:39:09;;;;;;;4.05;1.60;;;;;;;;;;5001257;28;20033;-60
2021/04/28 05:41:35;;;;;;;4.50;2.20;;;;;;;;;;4999335;28;20048;-59
2021/04/28 05:44:04;;;;;;;4.88;2.00;;;;;;;;;;5001662;28;20056;-59
2021/04/28 05:46:30;;;;;;;4.20;1.90;;;;;;;;;;5000428;28;20033;-59
2021/04/28 05:48:55;;;;;;;3.97;1.90;;;;;;;;;;4998586;28;20030;-58
2021/04/28 05:51:20;;;;;;;4.30;1.73;;;;;;;;;;5005890;28;20041;-59
2021/04/28 05:53:46;;;;;;;4.50;2.35;;;;;;;;;;4996972;28;20022;-59
2021/04/28 05:56:12;;;;;;;3.75;1.42;;;;;;;;;;4989430;28;20077;-60
2021/04/28 05:58:38;;;;;;;2.10;1.58;;;;;;;;;;5000051;28;20064;-59
2021/04/28 06:01:04;;;;;;;4.18;2.33;;;;;;;;;;4999565;28;20042;-58
2021/04/28 06:03:30;;;;;;;3.05;1.98;;;;;;;;;;5004050;28;20052;-59
2021/04/28 06:05:55;;;;;;;5.35;1.85;;;;;;;;;;5003730;28;20548;-60
2021/04/28 06:08:21;;;;;;;5.95;2.22;;;;;;;;;;5004006;28;21769;-59
2021/04/28 06:10:47;;;;;;;4.80;1.90;;;;;;;;;;4991917;28;20037;-59
2021/04/28 06:13:12;;;;;;;5.47;1.80;;;;;;;;;;5002627;28;20067;-59
2021/04/28 06:15:39;;;;;;;2.95;1.42;;;;;;;;;;5003627;28;20043;-59
2021/04/28 06:18:08;;;;;;;5.40;1.73;;;;;;;;;;5001708;28;20103;-58
2021/04/28 06:20:33;;;;;;;5.20;2.03;;;;;;;;;;5000787;28;20052;-59
2021/04/28 06:23:00;;;;;;;4.35;1.80;;;;;;;;;;5002180;28;20038;-60
2021/04/28 06:25:25;;;;;;;5.38;2.00;;;;;;;;;;5014001;28;20745;-60
2021/04/28 06:27:54;;;;;;;3.28;1.98;;;;;;;;;;5000267;28;20104;-60
2021/04/28 06:30:20;;;;;;;3.83;1.90;;;;;;;;;;5009776;28;20476;-59
2021/04/28 06:32:48;;;;;;;3.95;1.77;;;;;;;;;;5000058;28;20106;-60
2021/04/28 06:35:13;;;;;;;4.47;1.65;;;;;;;;;;5002743;28;20106;-60
2021/04/28 06:37:39;;;;;;;2.05;1.63;;;;;;;;;;5002003;28;21014;-60
2021/04/28 06:40:08;;;;;;;2.92;1.90;;;;;;;;;;5002540;28;20058;-59
2021/04/28 06:42:34;;;;;;;3.67;2.10;;;;;;;;;;5018060;28;20137;-59
2021/04/28 06:45:00;;;;;;;5.13;2.13;;;;;;;;;;5002358;28;20033;-60
2021/04/28 06:47:26;;;;;;;5.43;2.20;;;;;;;;;;5002436;28;20308;-60
2021/04/28 06:49:55;;;;;;;3.20;2.20;;;;;;;;;;5002518;28;20155;-60
2021/04/28 06:52:21;;;;;;;2.30;1.85;;;;;;;;;;4999908;28;20042;-60
2021/04/28 06:54:47;;;;;;;2.47;2.00;;;;;;;;;;5003982;28;20955;-60
2021/04/28 06:57:13;;;;;;;5.15;2.03;;;;;;;;;;5000465;28;20496;-60
2021/04/28 06:59:41;;;;;;;3.40;1.92;;;;;;;;;;5001913;28;20041;-59
2021/04/28 07:02:07;;;;;;;9.15;2.33;;;;;;;;;;5000445;28;20049;-59
2021/04/28 07:04:35;;;;;;;10.77;2.35;;;;;;;;;;5001846;28;20690;-59
2021/04/28 07:07:00;;;;;;;4.75;2.28;;;;;;;;;;5000698;28;20034;-60
2021/04/28 07:09:26;;;;;;;5.80;2.25;;;;;;;;;;4984508;28;20099;-60
2021/04/28 07:11:51;;;;;;;4.90;1.90;;;;;;;;;;5002686;28;20470;-59
2021/04/28 07:14:17;;;;;;;6.63;2.30;;;;;;;;;;5000141;28;20076;-61
2021/04/28 07:16:45;;;;;;;3.92;2.33;;;;;;;;;;5001238;28;20155;-60
2021/04/28 07:19:12;;;;;;;5.07;2.30;;;;;;;;;;5001257;28;20045;-60
2021/04/28 07:21:37;;;;;;;6.22;2.15;;;;;;;;;;4998994;28;20046;-60
2021/04/28 07:24:04;;;;;;;2.95;2.00;;;;;;;;;;5017769;28;20227;-59
2021/04/28 07:26:30;;;;;;;3.80;2.20;;;;;;;;;;5000059;28;20025;-59
2021/04/28 07:28:56;;;;;;;3.35;2.10;;;;;;;;;;5001607;28;20030;-59
2021/04/28 07:31:23;;;;;;;3.10;1.98;;;;;;;;;;5002471;28;20795;-60
2021/04/28 07:33:48;;;;;;;3.53;1.92;;;;;;;;;;5001484;28;20042;-60
2021/04/28 07:36:14;;;;;;;5.65;2.30;;;;;;;;;;5002599;28;20029;-60
2021/04/28 07:38:40;;;;;;;3.03;1.80;;;;;;;;;;5000411;28;20048;-60
2021/04/28 07:41:10;;;;;;;5.10;2.00;;;;;;;;;;5002678;28;20037;-62
2021/04/28 07:43:36;;;;;;;4.70;2.10;;;;;;;;;;5000084;28;20038;-60
2021/04/28 07:46:04;;;;;;;17.90;2.40;;;;;;;;;;4985806;28;20061;-60
2021/04/28 07:48:32;;;;;;;4.15;1.85;;;;;;;;;;5005018;28;20032;-60
2021/04/28 07:51:00;;;;;;;4.45;2.08;;;;;;;;;;5000439;28;20033;-60
2021/04/28 07:53:26;;;;;;;3.97;2.15;;;;;;;;;;5000981;28;20025;-60
2021/04/28 07:55:52;;;;;;;2.78;2.15;;;;;;;;;;5002865;28;20473;-60
2021/04/28 07:58:18;;;;;;;4.97;2.00;;;;;;;;;;5000393;28;20056;-61
2021/04/28 08:00:44;;;;;;;4.15;2.58;;;;;;;;;;5001982;28;20040;-60
2021/04/28 08:03:10;;;;;;;6.30;2.17;;;;;;;;;;5001957;28;20385;-60
2021/04/28 08:05:38;;;;;;;7.93;2.03;;;;;;;;;;4999895;28;20057;-60
2021/04/28 08:08:04;;;;;;;3.45;2.30;;;;;;;;;;5001286;28;20594;-61
2021/04/28 08:10:31;;;;;;;3.47;2.30;;;;;;;;;;5012049;28;20030;-61
2021/04/28 08:12:57;;;;;;;3.85;2.00;;;;;;;;;;4984094;28;20951;-60
2021/04/28 08:15:25;;;;;;;4.13;2.42;;;;;;;;;;4999360;28;20055;-61
2021/04/28 08:17:51;;;;;;;10.45;2.60;;;;;;;;;;4997849;28;20041;-60
2021/04/28 08:20:17;;;;;;;3.63;2.20;;;;;;;;;;4995831;28;20152;-59
2021/04/28 08:22:43;;;;;;;9.70;2.38;;;;;;;;;;4996386;28;20057;-59
2021/04/28 08:25:14;;;;;;;4.22;2.55;;;;;;;;;;4996882;28;20116;-59
2021/04/28 08:27:42;;;;;;;3.63;2.38;;;;;;;;;;4996622;28;20437;-60
2021/04/28 08:30:17;;;;;;;4.07;2.00;;;;;;;;;;5002025;28;20037;-60
2021/04/28 08:32:43;;;;;;;8.48;2.78;;;;;;;;;;4999499;28;20118;-60
2021/04/28 08:35:13;;;;;;;9.60;2.70;;;;;;;;;;4998431;28;21085;-60
2021/04/28 08:37:47;;;;;;;4.03;2.25;;;;;;;;;;4987948;28;20033;-60
2021/04/28 08:40:13;;;;;;;3.72;2.55;;;;;;;;;;4988399;28;20042;-61
2021/04/28 08:42:39;;;;;;;7.07;2.28;;;;;;;;;;4996984;28;20030;-61
2021/04/28 08:45:05;;;;;;;3.22;1.95;;;;;;;;;;5000576;28;20037;-60
2021/04/28 08:47:31;;;;;;;3.05;1.90;;;;;;;;;;4998382;28;20088;-60
2021/04/28 08:49:59;;;;;;;5.72;2.25;;;;;;;;;;5001000;28;20030;-60
2021/04/28 08:52:28;;;;;;;5.07;2.70;;;;;;;;;;4997691;28;20116;-62
2021/04/28 08:54:54;;;;;;;4.18;2.22;;;;;;;;;;5001192;28;20071;-61
2021/04/28 08:57:19;;;;;;;5.88;2.05;;;;;;;;;;5000247;28;20037;-60
2021/04/28 08:59:45;;;;;;;4.20;2.40;;;;;;;;;;5001841;28;21058;-65
2021/04/28 09:02:11;;;;;;;9.00;2.88;;;;;;;;;;5001294;28;20030;-61
2021/04/28 09:04:37;;;;;;;3.85;2.65;;;;;;;;;;4999036;28;20949;-61
2021/04/28 09:07:03;;;;;;;4.30;2.70;;;;;;;;;;4987546;28;20033;-62
2021/04/28 09:09:29;;;;;;;4.20;2.80;;;;;;;;;;4998729;28;21022;-62
2021/04/28 09:11:57;;;;;;;3.15;2.53;;;;;;;;;;4999964;28;20048;-60
2021/04/28 09:14:24;;;;;;;3.67;2.70;;;;;;;;;;5002562;28;20033;-61
2021/04/28 09:16:56;;;;;;;6.50;2.50;;;;;;;;;;4999715;28;20080;-61
2021/04/28 09:19:28;;;;;;;2.83;2.50;;;;;;;;;;5004701;28;20044;-61
2021/04/28 09:21:57;;;;;;;9.90;3.00;;;;;;;;;;4998602;28;20083;-60
2021/04/28 09:24:24;;;;;;;5.90;2.97;;;;;;;;;;4999521;28;20906;-60
2021/04/28 09:26:55;;;;;;;7.65;3.50;;;;;;;;;;4987344;28;20159;-59
2021/04/28 09:29:23;;;;;;;5.38;2.65;;;;;;;;;;4997407;28;20081;-61
2021/04/28 09:32:10;;;;;;;6.10;3.10;;;;;;;;;;4996968;28;20620;-61
2021/04/28 09:34:38;;;;;;;7.22;2.67;;;;;;;;;;4999230;28;20038;-60
2021/04/28 09:37:13;;;;;;;8.50;2.63;;;;;;;;;;4997498;28;20034;-60
2021/04/28 09:39:40;;;;;;;4.63;2.80;;;;;;;;;;5000153;28;22027;-62
2021/04/28 09:42:07;;;;;;;8.55;2.90;;;;;;;;;;5000225;28;20034;-60
2021/04/28 09:44:33;;;;;;;7.10;3.35;;;;;;;;;;5000092;28;20037;-61
2021/04/28 09:47:00;;;;;;;6.32;3.30;;;;;;;;;;4999477;28;20466;-60
2021/04/28 09:49:27;;;;;;;4.80;2.58;;;;;;;;;;4999902;28;20144;-62
2021/04/28 09:51:59;;;;;;;6.13;2.75;;;;;;;;;;4982207;28;20045;-61
2021/04/28 09:54:31;;;;;;;5.05;2.47;;;;;;;;;;5016044;28;20057;-62
2021/04/28 09:56:57;;;;;;;2.92;2.17;;;;;;;;;;4999620;28;20026;-63
2021/04/28 09:59:39;;;;;;;4.50;3.22;;;;;;;;;;5000346;28;20104;-62
2021/04/28 10:02:05;;;;;;;5.07;3.25;;;;;;;;;;4999096;28;20037;-62
2021/04/28 10:04:31;;;;;;;3.40;2.28;;;;;;;;;;5012092;28;20045;-62
2021/04/28 10:06:57;;;;;;;2.85;2.55;;;;;;;;;;4986510;28;20029;-63
2021/04/28 10:09:30;;;;;;;3.75;2.72;;;;;;;;;;4999643;28;20472;-63
2021/04/28 10:11:59;;;;;;;11.48;3.05;;;;;;;;;;4999145;28;20124;-63
2021/04/28 10:30:08;;;;;;;8.20;2.90;;;;;;;;;;4986325;28;20052;-61
2021/04/28 10:32:35;;;;;;;4.60;2.70;;;;;;;;;;4997324;28;20081;-60
2021/04/28 10:35:03;;;;;;;2.88;2.30;;;;;;;;;;4997728;28;20032;-62
2021/04/28 10:37:31;;;;;;;5.85;2.42;;;;;;;;;;4997367;28;20068;-59
2021/04/28 10:39:57;;;;;;;4.88;2.30;;;;;;;;;;4987783;28;20073;-61
2021/04/28 10:42:23;;;;;;;7.95;3.03;;;;;;;;;;5003596;28;20034;-60
2021/04/28 10:44:50;;;;;;;5.60;2.40;;;;;;;;;;4999513;28;20063;-60
2021/04/28 10:47:20;;;;;;;4.53;2.35;;;;;;;;;;4999416;28;20030;-60
2021/04/28 10:49:57;;;;;;;4.38;2.30;;;;;;;;;;4986565;28;20041;-60
2021/04/28 10:52:42;;;;;;;3.63;1.90;;;;;;;;;;5006799;28;20041;-60
2021/04/28 10:55:28;;;;;;;5.05;2.40;;;;;;;;;;5002766;28;20025;-62
2021/04/28 10:57:53;;;;;;;3.75;2.20;;;;;;;;;;4999174;28;20057;-61
2021/04/28 11:00:22;;;;;;;3.50;2.38;;;;;;;;;;5001842;28;20136;-59
2021/04/28 11:02:48;;;;;;;2.97;2.25;;;;;;;;;;5005943;28;20116;-61
2021/04/28 11:05:33;;;;;;;2.83;2.42;;;;;;;;;;5001728;28;22155;-62
2021/04/28 11:08:28;;;;;;;2.90;1.95;;;;;;;;;;5001632;28;20046;-61
2021/04/28 11:10:56;;;;;;;2.53;2.22;;;;;;;;;;5002883;28;20364;-60
2021/04/28 11:13:23;;;;;;;3.08;2.75;;;;;;;;;;5001789;28;20029;-59
2021/04/28 11:15:53;;;;;;;6.10;2.63;;;;;;;;;;4999864;28;20103;-60
2021/04/28 11:18:28;;;;;;;2.60;2.10;;;;;;;;;;5004267;28;20040;-61
2021/04/28 11:21:26;;;;;;;4.13;2.20;;;;;;;;;;4999187;28;20021;-61
2021/04/28 11:24:10;;;;;;;3.55;2.25;;;;;;;;;;4979900;28;20145;-59
2021/04/28 11:26:46;;;;;;;2.33;1.98;;;;;;;;;;5005542;28;20064;-62
2021/04/28 11:29:12;;;;;;;5.28;2.92;;;;;;;;;;4999666;28;20037;-61
2021/04/28 11:31:38;;;;;;;2.78;2.45;;;;;;;;;;5001306;28;20549;-60
2021/04/28 11:34:19;;;;;;;4.45;2.03;;;;;;;;;;5002060;28;20044;-60
2021/04/28 11:36:52;;;;;;;4.75;2.33;;;;;;;;;;4999388;28;20075;-61
2021/04/28 11:39:34;;;;;;;4.03;2.30;;;;;;;;;;5001976;28;20033;-61
2021/04/28 11:42:19;;;;;;;4.60;2.05;;;;;;;;;;5000796;28;20041;-62
2021/04/28 11:44:54;;;;;;;4.20;2.25;;;;;;;;;;5000117;28;20071;-61
2021/04/28 11:47:22;;;;;;;3.42;1.95;;;;;;;;;;5001095;28;20052;-60
2021/04/28 11:49:52;;;;;;;4.00;2.65;;;;;;;;;;4999964;28;20072;-62
2021/04/28 11:52:18;;;;;;;4.75;2.60;;;;;;;;;;5001092;28;20052;-62
2021/04/28 11:54:44;;;;;;;3.72;2.60;;;;;;;;;;4989452;28;20916;-62
2021/04/28 11:57:12;;;;;;;3.15;2.08;;;;;;;;;;5009558;28;20022;-60
2021/04/28 11:59:38;;;;;;;3.15;2.20;;;;;;;;;;4998595;28;20021;-61
2021/04/28 12:02:05;;;;;;;4.13;2.25;;;;;;;;;;4998658;28;20601;-62
2021/04/28 12:04:32;;;;;;;4.75;2.55;;;;;;;;;;5008774;28;20472;-61
2021/04/28 12:06:58;;;;;;;6.65;2.80;;;;;;;;;;5005502;28;20037;-62
2021/04/28 12:09:41;;;;;;;5.93;2.53;;;;;;;;;;5006018;28;20095;-61
2021/04/28 12:12:06;;;;;;;2.78;2.40;;;;;;;;;;5001060;28;20045;-62
2021/04/28 12:14:32;;;;;;;2.40;2.17;;;;;;;;;;5000192;28;20054;-62
2021/04/28 12:16:58;;;;;;;2.05;1.85;;;;;;;;;;5015282;28;20029;-62
2021/04/28 12:19:24;;;;;;;2.85;2.40;;;;;;;;;;4979394;28;20697;-63
2021/04/28 12:22:04;;;;;;;3.92;2.35;;;;;;;;;;5000543;28;20042;-62
2021/04/28 12:24:38;;;;;;;4.70;2.47;;;;;;;;;;4999122;28;20034;-62
2021/04/28 12:27:06;;;;;;;4.97;2.65;;;;;;;;;;5014151;28;20033;-61
2021/04/28 12:29:35;;;;;;;4.00;2.17;;;;;;;;;;5000608;28;20099;-62
2021/04/28 12:32:03;;;;;;;3.45;2.25;;;;;;;;;;4992782;28;20077;-60
2021/04/28 12:34:29;;;;;;;4.03;2.10;;;;;;;;;;5000819;28;20029;-62
2021/04/28 12:37:08;;;;;;;3.45;2.25;;;;;;;;;;4998758;28;20041;-60
2021/04/28 12:39:37;;;;;;;2.63;2.10;;;;;;;;;;4997862;28;20034;-61
2021/04/28 12:42:03;;;;;;;4.28;2.30;;;;;;;;;;4999411;28;20060;-60
2021/04/28 12:44:29;;;;;;;4.03;2.38;;;;;;;;;;4999729;28;20388;-63
2021/04/28 12:46:57;;;;;;;2.78;1.85;;;;;;;;;;5002146;28;20064;-61
2021/04/28 12:49:24;;;;;;;4.28;2.38;;;;;;;;;;4999199;28;20124;-61
2021/04/28 12:51:54;;;;;;;9.18;2.28;;;;;;;;;;4997273;28;20034;-60
2021/04/28 12:54:26;;;;;;;5.00;2.92;;;;;;;;;;4978126;28;20153;-61
2021/04/28 12:56:52;;;;;;;2.63;1.95;;;;;;;;;;4999031;28;20120;-62
2021/04/28 12:59:25;;;;;;;4.40;2.40;;;;;;;;;;5000824;28;20029;-61
2021/04/28 13:01:59;;;;;;;2.80;2.60;;;;;;;;;;4999904;28;20174;-62
2021/04/28 13:04:25;;;;;;;4.43;2.75;;;;;;;;;;5002162;28;20037;-60
2021/04/28 13:07:09;;;;;;;5.80;2.97;;;;;;;;;;4987944;28;20089;-61
2021/04/28 13:09:35;;;;;;;5.47;2.78;;;;;;;;;;5005337;28;20046;-61
2021/04/28 13:12:00;;;;;;;8.40;3.05;;;;;;;;;;4998058;28;20034;-60
2021/04/28 13:14:45;;;;;;;3.53;2.78;;;;;;;;;;5001296;28;20022;-61
2021/04/28 13:17:13;;;;;;;6.32;2.88;;;;;;;;;;5000003;28;20626;-62
2021/04/28 13:19:40;;;;;;;5.15;2.90;;;;;;;;;;5000364;28;20075;-60
2021/04/28 13:22:09;;;;;;;6.85;3.10;;;;;;;;;;4995997;28;20474;-61
2021/04/28 13:24:38;;;;;;;4.65;3.05;;;;;;;;;;5000028;28;20092;-62
2021/04/28 13:27:12;;;;;;;3.67;2.92;;;;;;;;;;4996060;28;20103;-60
2021/04/28 13:29:37;;;;;;;;;;;;;;;;;;5000171;28;20041;-60
2021/04/28 13:32:04;;;;;;;4.60;2.60;;;;;;;;;;4998440;28;19922;-63
2021/04/28 13:34:32;;;;;;;5.10;3.22;;;;;;;;;;4997636;28;20034;-61
2021/04/28 13:36:58;;;;;;;3.60;2.80;;;;;;;;;;5004742;28;20026;-62
2021/04/28 13:39:25;;;;;;;7.05;2.83;;;;;;;;;;4998720;28;20397;-61
2021/04/28 13:41:55;;;;;;;5.78;3.08;;;;;;;;;;4999544;28;21176;-60
2021/04/28 13:44:26;;;;;;;4.38;3.38;;;;;;;;;;4997801;28;20039;-60
2021/04/28 13:46:55;;;;;;;4.90;2.85;;;;;;;;;;5003590;28;20083;-61
2021/04/28 13:49:21;;;;;;;8.50;3.25;;;;;;;;;;4999739;28;20041;-60
2021/04/28 13:51:51;;;;;;;6.00;3.30;;;;;;;;;;4998305;28;20029;-60
2021/04/28 13:54:19;;;;;;;8.02;3.05;;;;;;;;;;5001118;28;20025;-61
2021/04/28 13:56:45;;;;;;;20.98;4.00;;;;;;;;;;4997362;28;20122;-61
2021/04/28 13:59:13;;;;;;;6.95;3.42;;;;;;;;;;5000853;28;20053;-60
2021/04/28 14:01:38;;;;;;;5.78;2.70;;;;;;;;;;4997576;28;20897;-60
2021/04/28 14:04:04;;;;;;;5.93;3.20;;;;;;;;;;4998535;28;20049;-60
2021/04/28 14:06:30;;;;;;;12.35;3.30;;;;;;;;;;4998197;28;20079;-61
2021/04/28 14:08:58;;;;;;;3.55;3.10;;;;;;;;;;4988406;28;20037;-62
2021/04/28 14:11:24;;;;;;;4.60;3.08;;;;;;;;;;4998847;28;20029;-61
2021/04/28 14:14:08;;;;;;;6.60;2.97;;;;;;;;;;5000163;28;20049;-60
2021/04/28 14:16:52;;;;;;;6.25;3.05;;;;;;;;;;4998461;28;20048;-60
2021/04/28 14:19:37;;;;;;;5.75;3.50;;;;;;;;;;4997372;28;20040;-61
2021/04/28 14:22:21;;;;;;;5.10;3.20;;;;;;;;;;4999796;28;20091;-61
2021/04/28 14:25:06;;;;;;;4.10;3.10;;;;;;;;;;4990424;28;20052;-61
2021/04/28 14:27:51;;;;;;;6.00;3.70;;;;;;;;;;5003418;28;20056;-60
2021/04/28 14:30:35;;;;;;;5.10;2.92;;;;;;;;;;4999163;28;20126;-61
2021/04/28 14:33:19;;;;;;;4.75;3.35;;;;;;;;;;4999898;28;20088;-60
2021/04/28 14:36:03;;;;;;;;;;;;;;;;;;4998548;28;20048;-61
2021/04/28 14:38:47;;;;;;;8.00;3.27;;;;;;;;;;4999500;28;20017;-60
2021/04/28 14:41:32;;;;;;;6.40;3.40;;;;;;;;;;4985861;28;20399;-60
2021/04/28 14:44:16;;;;;;;5.72;3.80;;;;;;;;;;4997474;28;20112;-61
2021/04/28 14:47:00;;;;;;;9.70;4.47;;;;;;;;;;5002770;28;20543;-59
2021/04/28 14:49:44;;;;;;;11.50;4.22;;;;;;;;;;5000542;28;20122;-59
2021/04/28 14:52:28;;;;;;;5.38;3.10;;;;;;;;;;5003096;28;21198;-60
2021/04/28 14:55:13;;;;;;;8.68;3.90;;;;;;;;;;5002360;28;20405;-61
2021/04/28 14:57:57;;;;;;;9.15;4.15;;;;;;;;;;5003623;28;20199;-60
2021/04/28 15:00:41;;;;;;;9.93;4.57;;;;;;;;;;5008163;28;20099;-61
2021/04/28 15:03:25;;;;;;;8.27;4.37;;;;;;;;;;5006045;28;20164;-60
2021/04/28 15:06:10;;;;;;;7.10;4.30;;;;;;;;;;5006332;28;20148;-61
2021/04/28 15:08:57;;;;;;;9.63;3.75;;;;;;;;;;5002441;28;20558;-60